EFJO

Joensuu Airport

Joensuu / Liperi, Finland
METAR EFJO 260250Z AUTO 03011KT 360V070 6000 -SHSN OVC014 M10/M14 Q1032
Observed Flight Rules
Feb-26 @ 02:50 UTC (30 minutes ago) Marginal Visual Flight Rules
Wind Visibility Clouds Conditions
30° at 11 knots 6,003 meters
  • Overcast at 1,400' AGL
  • Light Snow
Temperatures Readings
Current -10°C / 14°F
Dewpoint -14°C / 7°F
Humidity 73%
Altimeter 30.47" Hg
Pressure 1032 hPa
Elevation 117
METAR EFJO 260250Z AUTO 03011KT 360V070 6000 -SHSN OVC014 M10/M14 Q1032
Observed Flight Rules
Feb-26 @ 02:50 UTC
(30 minutes ago)
MVFR
Wind Visibility
30° at 11 knots 6,003 meters
Clouds
  • Overcast at 1,400' AGL
Conditions
  • Light Snow
Temperature Dewpoint
-10°C / 14°F -14°C / 7°F
Humidity Altimeter Pressure
73% 30.47" Hg 1032 hPa